Time;durP1;ratioP1;P1;durP2;ratioP2;P2;SDS_P1;SDS_P2;PMS_P1;PMS_P2;Temp;Humidity;BMP_temperature;BMP_pressure;BME280_temperature;BME280_humidity;BME280_pressure;Samples;Min_cycle;Max_cycle;Signal;HPM_P1;HPM_P2
2023/07/01 00:01:39;;;;;;;4.03;2.30;;;22.20;58.70;;;;;;6259326;28;20135;-76
2023/07/01 00:04:43;;;;;;;6.05;2.15;;;22.20;58.70;;;;;;6244676;28;20025;-77
2023/07/01 00:07:44;;;;;;;4.35;1.85;;;22.20;58.70;;;;;;6245346;28;20120;-77
2023/07/01 00:10:45;;;;;;;8.73;2.40;;;22.20;58.70;;;;;;6259540;28;20048;-76
2023/07/01 00:13:46;;;;;;;6.72;3.63;;;22.20;58.90;;;;;;6244275;28;20040;-76
2023/07/01 00:16:47;;;;;;;9.05;3.88;;;22.20;58.90;;;;;;6242862;28;20034;-75
2023/07/01 00:19:48;;;;;;;9.30;2.83;;;22.20;59.00;;;;;;6244847;28;20034;-75
2023/07/01 00:22:49;;;;;;;8.55;2.47;;;22.20;59.00;;;;;;6242696;28;20111;-75
2023/07/01 00:25:50;;;;;;;20.05;6.32;;;22.20;59.10;;;;;;6227198;28;20061;-75
2023/07/01 00:28:53;;;;;;;3.67;2.35;;;22.20;59.10;;;;;;6242699;28;20037;-74
2023/07/01 00:31:54;;;;;;;11.02;5.88;;;22.20;59.20;;;;;;6246093;28;20098;-77
2023/07/01 00:34:55;;;;;;;10.30;5.50;;;22.10;59.20;;;;;;6262811;28;20128;-76
2023/07/01 00:37:55;;;;;;;9.88;5.25;;;22.10;59.30;;;;;;6262657;28;20087;-76
2023/07/01 00:40:57;;;;;;;8.55;3.85;;;22.10;59.40;;;;;;6244009;28;20025;-76
2023/07/01 00:43:57;;;;;;;9.60;4.78;;;22.10;59.40;;;;;;6259028;28;20560;-75
2023/07/01 00:47:12;;;;;;;17.48;4.60;;;22.10;59.50;;;;;;6236085;28;20030;-74
2023/07/01 00:50:14;;;;;;;3.72;2.30;;;22.10;59.70;;;;;;6271052;28;20076;-75
2023/07/01 00:53:15;;;;;;;3.83;2.38;;;22.10;59.60;;;;;;6273185;28;20045;-75
2023/07/01 00:56:16;;;;;;;6.30;1.83;;;22.10;59.60;;;;;;6267440;28;20041;-76
2023/07/01 00:59:17;;;;;;;5.28;2.83;;;22.10;59.60;;;;;;6264573;28;20056;-75
2023/07/01 01:02:23;;;;;;;6.50;2.80;;;22.10;59.60;;;;;;6258226;28;20794;-75
2023/07/01 01:05:50;;;;;;;7.50;2.58;;;22.20;60.50;;;;;;6243707;28;20022;-75
2023/07/01 01:09:01;;;;;;;9.27;2.05;;;22.10;59.60;;;;;;6241825;28;20032;-77
2023/07/01 01:12:05;;;;;;;4.72;1.98;;;22.10;59.40;;;;;;6258269;28;20034;-77
2023/07/01 01:15:08;;;;;;;3.60;2.00;;;22.00;59.30;;;;;;6242291;28;20686;-75
2023/07/01 01:18:12;;;;;;;2.88;1.88;;;22.00;59.30;;;;;;6242143;28;20057;-76
2023/07/01 01:21:15;;;;;;;7.93;2.33;;;22.00;59.20;;;;;;6243337;28;20025;-76
2023/07/01 01:24:18;;;;;;;10.23;2.03;;;22.00;59.20;;;;;;6241742;28;20033;-75
2023/07/01 01:27:23;;;;;;;6.18;1.70;;;22.00;59.10;;;;;;6243435;28;20072;-76
2023/07/01 01:30:28;;;;;;;4.70;1.83;;;21.90;59.70;;;;;;6241897;28;20056;-76
2023/07/01 01:33:29;;;;;;;4.75;1.83;;;22.00;59.20;;;;;;6240598;28;20465;-76
2023/07/01 01:36:41;;;;;;;5.40;1.90;;;21.90;59.30;;;;;;6244205;28;20033;-74
2023/07/01 01:39:45;;;;;;;4.55;2.25;;;22.00;59.50;;;;;;6252152;28;20083;-74
2023/07/01 01:42:47;;;;;;;2.80;1.75;;;22.00;59.50;;;;;;6241902;28;20097;-75
2023/07/01 01:45:49;;;;;;;10.32;2.55;;;22.00;59.50;;;;;;6242367;28;20044;-74
2023/07/01 01:48:55;;;;;;;4.82;1.92;;;22.00;59.50;;;;;;6242263;28;20083;-75
2023/07/01 01:51:57;;;;;;;9.30;2.45;;;22.00;59.50;;;;;;6257389;28;20040;-75
2023/07/01 01:54:58;;;;;;;6.60;1.98;;;22.00;59.50;;;;;;6240869;28;20034;-76
2023/07/01 01:58:00;;;;;;;7.88;1.92;;;22.00;59.50;;;;;;6257293;28;20052;-76
2023/07/01 02:01:01;;;;;;;7.90;2.22;;;22.00;59.50;;;;;;6256675;28;20111;-74
2023/07/01 02:04:02;;;;;;;2.47;1.58;;;22.00;59.40;;;;;;6242248;28;20081;-76
2023/07/01 02:07:03;;;;;;;3.72;1.88;;;22.00;59.40;;;;;;6240520;28;20036;-76
2023/07/01 02:10:05;;;;;;;3.10;1.77;;;22.00;59.30;;;;;;6241777;28;20045;-74
2023/07/01 02:13:06;;;;;;;4.45;1.77;;;22.00;59.20;;;;;;6239955;28;20075;-75
2023/07/01 02:16:07;;;;;;;8.02;1.80;;;22.00;59.10;;;;;;6240934;28;20030;-76
2023/07/01 02:19:08;;;;;;;11.85;2.47;;;21.90;59.10;;;;;;6239502;28;20528;-76
2023/07/01 02:22:08;;;;;;;5.95;2.13;;;21.90;59.10;;;;;;6239886;28;20142;-76
2023/07/01 02:25:09;;;;;;;6.30;2.08;;;21.90;59.10;;;;;;6240297;28;20120;-75
2023/07/01 02:28:10;;;;;;;3.67;2.03;;;21.80;59.20;;;;;;6239568;28;20393;-75
2023/07/01 02:31:16;;;;;;;4.03;2.00;;;21.80;59.10;;;;;;6256838;28;20045;-75
2023/07/01 02:34:25;;;;;;;3.83;1.70;;;21.70;59.10;;;;;;6239387;28;20059;-75
2023/07/01 02:37:26;;;;;;;3.83;1.80;;;21.70;58.60;;;;;;6250407;28;20037;-76
2023/07/01 02:40:27;;;;;;;1.25;1.13;;;21.70;57.30;;;;;;6250729;28;20052;-75
2023/07/01 02:43:28;;;;;;;2.13;1.33;;;21.70;56.20;;;;;;6275650;28;20037;-75
2023/07/01 02:46:30;;;;;;;3.63;1.55;;;21.70;56.10;;;;;;6268823;28;20061;-74
2023/07/01 02:49:31;;;;;;;6.13;1.30;;;21.80;54.80;;;;;;6249581;28;20087;-75
2023/07/01 02:52:32;;;;;;;2.20;1.38;;;21.80;54.60;;;;;;6248461;28;20108;-74
2023/07/01 02:55:33;;;;;;;2.42;1.52;;;21.90;54.20;;;;;;6249775;28;20062;-74
2023/07/01 02:58:34;;;;;;;3.58;1.20;;;21.90;53.70;;;;;;6248464;28;20056;-77
2023/07/01 03:01:35;;;;;;;10.82;1.05;;;21.90;53.40;;;;;;6247570;28;20041;-74
2023/07/01 03:04:35;;;;;;;3.65;1.50;;;21.90;53.40;;;;;;6247340;28;20032;-75
2023/07/01 03:07:36;;;;;;;3.70;1.20;;;21.90;52.80;;;;;;6248719;28;20040;-75
2023/07/01 03:10:37;;;;;;;1.83;1.30;;;21.90;52.50;;;;;;6247531;28;20203;-76
2023/07/01 03:13:38;;;;;;;3.03;1.20;;;21.90;52.00;;;;;;6264503;28;20068;-76
2023/07/01 03:16:41;;;;;;;1.90;0.90;;;21.90;51.70;;;;;;6265403;28;20041;-75
2023/07/01 03:19:42;;;;;;;1.40;1.00;;;22.00;51.60;;;;;;6248197;28;20060;-76
2023/07/01 03:22:42;;;;;;;6.50;1.40;;;21.90;51.10;;;;;;6249307;28;20036;-75
2023/07/01 03:25:43;;;;;;;1.42;1.13;;;21.90;51.00;;;;;;6250206;28;20454;-75
2023/07/01 03:28:47;;;;;;;5.20;1.13;;;21.90;50.50;;;;;;6248792;28;20064;-75
2023/07/01 03:31:48;;;;;;;1.95;1.45;;;21.90;50.30;;;;;;6249461;28;20042;-76
2023/07/01 03:34:49;;;;;;;6.80;1.30;;;21.90;50.70;;;;;;6263770;28;20339;-76
2023/07/01 03:37:50;;;;;;;8.38;1.90;;;21.90;51.40;;;;;;6277500;28;20043;-77
2023/07/01 03:40:51;;;;;;;2.72;1.75;;;21.80;52.30;;;;;;6288579;28;20113;-76
2023/07/01 03:43:52;;;;;;;4.03;2.00;;;21.80;53.50;;;;;;6254874;28;20036;-74
2023/07/01 03:46:53;;;;;;;3.92;1.92;;;21.70;54.60;;;;;;6288387;28;20524;-75
2023/07/01 03:49:54;;;;;;;4.13;2.08;;;21.70;55.40;;;;;;6272228;28;20056;-76
2023/07/01 03:52:54;;;;;;;3.30;1.70;;;21.60;55.90;;;;;;6277692;28;20041;-75
2023/07/01 03:55:55;;;;;;;6.65;1.95;;;21.50;56.30;;;;;;6244386;28;20120;-75
2023/07/01 03:58:56;;;;;;;2.15;1.38;;;21.50;57.20;;;;;;6244762;28;20025;-75
2023/07/01 04:01:57;;;;;;;4.80;1.73;;;21.50;56.80;;;;;;6243147;28;20060;-75
2023/07/01 04:05:09;;;;;;;3.42;1.85;;;21.40;57.00;;;;;;6259600;28;20104;-76
2023/07/01 04:08:10;;;;;;;3.35;1.90;;;21.40;57.20;;;;;;6244605;28;20452;-74
2023/07/01 04:11:11;;;;;;;7.93;2.05;;;21.40;57.40;;;;;;6242470;28;20200;-77
2023/07/01 04:14:15;;;;;;;2.35;1.45;;;21.40;57.50;;;;;;6242860;28;20079;-76
2023/07/01 04:17:15;;;;;;;2.75;1.65;;;21.40;57.80;;;;;;6219430;28;20041;-77
2023/07/01 04:20:19;;;;;;;3.72;1.42;;;21.40;57.80;;;;;;6217917;28;20132;-76
2023/07/01 04:23:20;;;;;;;2.22;1.35;;;21.30;56.70;;;;;;6219837;28;20467;-77
2023/07/01 04:26:21;;;;;;;7.22;1.05;;;21.30;55.90;;;;;;6218891;28;20030;-76
2023/07/01 04:29:22;;;;;;;1.20;0.90;;;21.30;54.80;;;;;;6242499;28;20677;-74
2023/07/01 04:32:23;;;;;;;1.42;1.05;;;21.30;53.80;;;;;;6243656;28;20034;-75
2023/07/01 04:35:24;;;;;;;2.10;0.98;;;21.30;53.40;;;;;;6259119;28;20029;-76
2023/07/01 04:38:24;;;;;;;3.78;1.58;;;21.30;52.70;;;;;;6273984;28;20497;-76
2023/07/01 04:41:25;;;;;;;1.98;1.10;;;21.30;52.20;;;;;;6242120;28;20087;-76
2023/07/01 04:44:26;;;;;;;2.58;1.13;;;21.30;52.00;;;;;;6242005;28;20532;-75
2023/07/01 04:47:27;;;;;;;2.85;1.30;;;21.30;51.60;;;;;;6258423;28;20029;-76
2023/07/01 04:50:28;;;;;;;5.03;1.30;;;21.30;51.60;;;;;;6244110;28;20037;-77
2023/07/01 04:53:29;;;;;;;3.20;1.48;;;21.30;51.50;;;;;;6242084;28;20056;-74
2023/07/01 04:56:31;;;;;;;7.72;1.15;;;21.30;51.20;;;;;;6245437;28;20411;-75
2023/07/01 04:59:32;;;;;;;2.45;1.30;;;21.20;51.20;;;;;;6244274;28;20416;-76
2023/07/01 05:02:34;;;;;;;5.45;1.30;;;21.30;51.40;;;;;;6243676;28;20049;-75
2023/07/01 05:05:35;;;;;;;4.80;1.92;;;21.30;51.80;;;;;;6242125;28;20468;-76
2023/07/01 05:08:36;;;;;;;7.60;2.20;;;21.30;52.30;;;;;;6243862;28;20056;-76
2023/07/01 05:11:37;;;;;;;5.07;2.53;;;21.30;53.00;;;;;;6241687;28;20112;-76
2023/07/01 05:14:38;;;;;;;3.67;2.28;;;21.30;53.90;;;;;;6241447;28;20124;-73
2023/07/01 05:17:39;;;;;;;3.85;2.70;;;21.40;54.70;;;;;;6242956;28;22035;-75
2023/07/01 05:20:39;;;;;;;6.25;2.45;;;21.40;55.20;;;;;;6242868;28;20033;-75
2023/07/01 05:23:40;;;;;;;3.83;2.42;;;21.40;55.70;;;;;;6241783;28;20045;-75
2023/07/01 05:26:51;;;;;;;8.07;2.00;;;21.30;55.90;;;;;;6258072;28;20251;-76
2023/07/01 05:29:51;;;;;;;6.95;1.73;;;21.40;56.20;;;;;;6248762;28;20477;-75
2023/07/01 05:32:53;;;;;;;3.85;2.60;;;21.50;56.40;;;;;;6266908;28;20036;-75
2023/07/01 05:35:54;;;;;;;5.82;2.28;;;21.50;56.60;;;;;;6267951;28;20524;-76
2023/07/01 05:38:55;;;;;;;3.28;2.00;;;21.50;56.90;;;;;;6245886;28;20036;-74
2023/07/01 05:41:56;;;;;;;7.38;2.08;;;21.60;57.00;;;;;;6243245;28;20413;-76
2023/07/01 05:44:57;;;;;;;3.55;1.70;;;21.60;57.00;;;;;;6241188;28;20112;-76
2023/07/01 05:47:58;;;;;;;9.00;2.08;;;21.60;56.70;;;;;;6243564;28;20037;-77
2023/07/01 05:50:58;;;;;;;7.07;2.13;;;21.70;56.50;;;;;;6258870;28;20100;-76
2023/07/01 05:53:59;;;;;;;8.55;2.08;;;21.80;56.30;;;;;;6258247;28;20060;-77
2023/07/01 05:57:00;;;;;;;4.22;1.90;;;21.80;56.30;;;;;;6226180;28;20446;-76
2023/07/01 06:00:04;;;;;;;2.45;1.52;;;21.90;56.20;;;;;;6259171;28;20033;-75
2023/07/01 06:03:13;;;;;;;5.30;2.28;;;21.90;56.10;;;;;;6242492;28;20093;-75
2023/07/01 06:06:14;;;;;;;5.13;2.05;;;22.00;56.00;;;;;;6242158;28;20029;-75
2023/07/01 06:09:16;;;;;;;5.10;1.80;;;22.00;56.10;;;;;;6242707;28;20505;-75
2023/07/01 06:12:17;;;;;;;2.13;1.45;;;22.10;56.00;;;;;;6240423;28;20033;-75
2023/07/01 06:15:18;;;;;;;3.63;1.42;;;22.10;54.80;;;;;;6240893;28;20533;-77
2023/07/01 06:18:18;;;;;;;7.80;1.48;;;22.10;53.80;;;;;;6241388;28;20033;-76
2023/07/01 06:21:21;;;;;;;1.27;1.17;;;22.10;52.90;;;;;;6240890;28;20099;-76
2023/07/01 06:24:22;;;;;;;2.60;1.20;;;22.20;52.40;;;;;;6240021;28;20113;-76
2023/07/01 06:27:22;;;;;;;1.83;1.27;;;22.10;52.50;;;;;;6240170;28;20052;-75
2023/07/01 06:30:23;;;;;;;5.30;1.58;;;22.20;52.60;;;;;;6239945;28;20135;-74
2023/07/01 06:33:25;;;;;;;3.45;1.25;;;22.20;52.50;;;;;;6240166;28;20037;-77
2023/07/01 06:36:25;;;;;;;2.83;1.60;;;22.20;52.30;;;;;;6241694;28;20056;-76
2023/07/01 06:39:26;;;;;;;4.10;1.20;;;22.20;51.90;;;;;;6241633;28;20458;-76
2023/07/01 06:42:27;;;;;;;4.00;1.52;;;22.20;51.80;;;;;;6239735;28;20033;-75
2023/07/01 06:45:29;;;;;;;2.08;1.50;;;22.30;51.70;;;;;;6256554;28;20451;-74
2023/07/01 06:48:30;;;;;;;4.85;1.20;;;22.30;51.60;;;;;;6241304;28;20107;-75
2023/07/01 06:51:31;;;;;;;7.57;1.45;;;22.40;51.60;;;;;;6241408;28;20033;-76
2023/07/01 06:54:31;;;;;;;4.97;1.30;;;22.50;51.40;;;;;;6239973;28;20042;-75
2023/07/01 06:57:32;;;;;;;3.25;1.08;;;22.60;51.10;;;;;;6240338;28;20430;-76
2023/07/01 07:00:33;;;;;;;8.15;1.50;;;22.60;51.00;;;;;;6255690;28;20021;-75
2023/07/01 07:03:37;;;;;;;5.63;1.60;;;22.70;50.60;;;;;;6240255;28;20425;-76
2023/07/01 07:06:38;;;;;;;4.95;1.52;;;22.80;50.50;;;;;;6248615;28;20057;-75
2023/07/01 07:09:38;;;;;;;3.28;1.48;;;22.90;50.30;;;;;;6240880;28;20030;-75
2023/07/01 07:12:40;;;;;;;6.18;1.70;;;23.00;50.20;;;;;;6240220;28;20081;-75
2023/07/01 07:15:41;;;;;;;3.67;1.90;;;23.10;50.30;;;;;;6247599;28;20029;-78
2023/07/01 07:18:42;;;;;;;10.35;1.80;;;23.20;50.20;;;;;;6265364;28;20290;-77
2023/07/01 07:21:43;;;;;;;1.60;1.27;;;23.20;50.00;;;;;;6264928;28;20024;-77
2023/07/01 07:24:44;;;;;;;3.38;1.35;;;23.30;50.00;;;;;;6264644;28;20103;-76
2023/07/01 07:27:45;;;;;;;4.10;1.60;;;23.30;49.90;;;;;;6246172;28;20052;-76
2023/07/01 07:30:46;;;;;;;4.97;1.95;;;23.30;50.00;;;;;;6259338;28;20038;-74
2023/07/01 07:33:47;;;;;;;2.17;1.45;;;23.40;50.00;;;;;;6260144;28;20085;-75
2023/07/01 07:36:47;;;;;;;4.93;1.33;;;23.50;49.80;;;;;;6248502;28;20084;-75
2023/07/01 07:39:48;;;;;;;3.25;1.50;;;23.70;50.00;;;;;;6260336;28;20124;-75
2023/07/01 07:42:53;;;;;;;2.17;1.48;;;23.80;49.00;;;;;;6245109;28;20041;-75
2023/07/01 07:45:54;;;;;;;6.72;2.25;;;23.80;48.60;;;;;;6243691;28;20029;-76
2023/07/01 07:48:55;;;;;;;2.00;1.52;;;23.90;48.50;;;;;;6243455;28;20107;-76
2023/07/01 07:51:56;;;;;;;10.65;2.08;;;24.00;48.30;;;;;;6245597;28;20055;-77
2023/07/01 07:54:57;;;;;;;4.55;1.52;;;24.00;48.10;;;;;;6259808;28;20029;-75
2023/07/01 07:57:58;;;;;;;6.30;1.70;;;24.00;48.00;;;;;;6245286;28;20376;-74
2023/07/01 08:00:59;;;;;;;8.40;1.67;;;24.00;47.90;;;;;;6244833;28;20033;-75
2023/07/01 08:04:00;;;;;;;5.28;1.50;;;24.10;47.70;;;;;;6244128;28;20065;-76
2023/07/01 08:07:01;;;;;;;4.05;1.42;;;24.20;47.50;;;;;;6243489;28;20488;-76
2023/07/01 08:10:02;;;;;;;9.10;1.88;;;24.30;47.10;;;;;;6260200;28;20099;-76
2023/07/01 08:13:03;;;;;;;4.18;1.67;;;24.50;46.90;;;;;;6244644;28;20037;-76
2023/07/01 08:16:04;;;;;;;2.28;1.70;;;24.80;46.80;;;;;;6243558;28;20032;-76
2023/07/01 08:19:05;;;;;;;2.67;1.50;;;25.20;46.40;;;;;;6243017;28;20144;-75
2023/07/01 08:22:06;;;;;;;1.67;1.45;;;25.60;45.90;;;;;;6244808;28;20104;-75
2023/07/01 08:25:07;;;;;;;2.78;1.60;;;26.00;45.30;;;;;;6259302;28;20053;-75
2023/07/01 08:28:09;;;;;;;2.25;1.20;;;26.20;44.50;;;;;;6244578;28;20033;-77
2023/07/01 08:31:11;;;;;;;5.45;1.77;;;26.30;44.30;;;;;;6226409;28;20057;-77
2023/07/01 08:34:12;;;;;;;4.85;1.77;;;26.30;44.40;;;;;;6244343;28;20065;-76
2023/07/01 08:37:13;;;;;;;2.70;1.50;;;26.30;44.50;;;;;;6252531;28;20534;-76
2023/07/01 08:40:14;;;;;;;3.58;1.25;;;26.40;44.00;;;;;;6249134;28;20052;-74
2023/07/01 08:43:15;;;;;;;3.15;1.42;;;26.50;43.40;;;;;;6241995;28;20140;-76
2023/07/01 08:46:18;;;;;;;9.20;1.50;;;26.50;43.20;;;;;;6243276;28;20035;-74
2023/07/01 08:49:22;;;;;;;3.47;1.38;;;26.60;43.00;;;;;;6246988;28;20022;-76
2023/07/01 08:52:29;;;;;;;3.40;1.98;;;26.70;42.50;;;;;;6246108;28;20041;-76
2023/07/01 08:55:30;;;;;;;7.35;1.60;;;27.00;42.40;;;;;;6242206;28;20037;-76
2023/07/01 08:58:31;;;;;;;3.40;1.70;;;27.10;41.80;;;;;;6242245;28;20037;-76
2023/07/01 09:01:32;;;;;;;4.43;1.58;;;27.20;41.50;;;;;;6243293;28;20135;-74
2023/07/01 09:04:37;;;;;;;4.22;1.40;;;27.20;41.00;;;;;;6243751;28;20022;-77
2023/07/01 09:07:41;;;;;;;5.43;1.52;;;27.10;40.40;;;;;;6241956;28;20054;-74
2023/07/01 09:10:43;;;;;;;5.18;1.55;;;27.00;40.20;;;;;;6241350;28;20034;-75
2023/07/01 09:13:44;;;;;;;1.20;1.10;;;26.90;40.30;;;;;;6242627;28;20485;-77
2023/07/01 09:16:45;;;;;;;10.85;1.60;;;26.90;40.50;;;;;;6246397;28;20119;-75
2023/07/01 09:19:50;;;;;;;4.05;1.52;;;27.00;40.80;;;;;;6260762;28;20477;-75
2023/07/01 09:22:59;;;;;;;3.92;1.42;;;26.80;40.80;;;;;;6258633;28;20234;-75
2023/07/01 09:26:08;;;;;;;;;;;26.70;41.00;;;;;;6259384;28;20041;-75
2023/07/01 09:29:14;;;;;;;3.05;1.70;;;26.70;41.10;;;;;;6258241;28;20020;-74
2023/07/01 09:32:28;;;;;;;1.95;1.13;;;26.70;41.00;;;;;;6233244;28;20042;-74
2023/07/01 09:35:41;;;;;;;14.70;2.13;;;26.80;40.90;;;;;;6219263;28;20163;-76
2023/07/01 09:38:51;;;;;;;6.90;1.80;;;26.80;40.80;;;;;;6258413;28;20069;-76
2023/07/01 09:42:04;;;;;;;6.30;1.70;;;27.00;40.40;;;;;;6283261;28;20499;-77
2023/07/01 09:45:09;;;;;;;3.47;1.50;;;27.30;40.10;;;;;;6283302;28;20409;-75
2023/07/01 09:48:12;;;;;;;5.72;1.92;;;27.40;39.60;;;;;;6283091;28;20142;-76
2023/07/01 09:51:14;;;;;;;5.38;1.52;;;27.50;39.40;;;;;;6266593;28;20179;-75
2023/07/01 09:54:29;;;;;;;2.83;1.40;;;27.60;39.30;;;;;;6265727;28;20115;-75
2023/07/01 09:57:31;;;;;;;3.42;1.98;;;27.60;38.70;;;;;;6267857;28;20045;-75
2023/07/01 10:00:32;;;;;;;5.18;1.35;;;27.90;38.50;;;;;;6271630;28;20033;-76
2023/07/01 10:03:33;;;;;;;3.67;1.33;;;28.00;38.10;;;;;;6242553;28;20192;-75
2023/07/01 10:06:34;;;;;;;2.75;1.35;;;28.10;38.00;;;;;;6242153;28;20405;-76
2023/07/01 10:09:41;;;;;;;2.97;1.92;;;28.30;37.80;;;;;;6242461;28;20161;-76
2023/07/01 10:12:45;;;;;;;1.30;1.07;;;28.50;37.40;;;;;;6243116;28;20124;-77
2023/07/01 10:15:47;;;;;;;4.72;1.40;;;28.70;37.40;;;;;;6257850;28;20268;-76
2023/07/01 10:18:47;;;;;;;7.68;1.20;;;28.90;37.20;;;;;;6257742;28;20037;-77
2023/07/01 10:21:48;;;;;;;6.38;1.40;;;29.10;36.10;;;;;;6241296;28;20124;-76
2023/07/01 10:24:55;;;;;;;2.70;1.60;;;29.20;35.00;;;;;;6240593;28;20076;-75
2023/07/01 10:28:15;;;;;;;7.88;1.30;;;29.10;35.10;;;;;;6257006;28;20119;-77
2023/07/01 10:31:16;;;;;;;2.22;1.13;;;29.10;35.40;;;;;;6241373;28;20081;-77
2023/07/01 10:34:17;;;;;;;2.58;1.60;;;29.30;35.50;;;;;;6240522;28;20342;-76
2023/07/01 10:37:18;;;;;;;2.20;1.23;;;29.40;35.60;;;;;;6251063;28;20090;-75
2023/07/01 10:40:28;;;;;;;4.18;1.55;;;29.20;35.90;;;;;;6247213;28;20127;-76
2023/07/01 10:43:33;;;;;;;3.75;1.65;;;29.10;36.40;;;;;;6256533;28;20135;-76
2023/07/01 10:46:34;;;;;;;6.30;1.30;;;29.10;36.50;;;;;;6241224;28;20053;-76
2023/07/01 10:49:36;;;;;;;1.90;1.25;;;29.30;36.20;;;;;;6242206;28;20033;-76
2023/07/01 10:52:55;;;;;;;7.50;1.45;;;29.60;35.80;;;;;;6243620;28;20033;-76
2023/07/01 10:56:12;;;;;;;3.90;1.40;;;29.80;35.40;;;;;;6225571;28;20030;-74
2023/07/01 10:59:25;;;;;;;3.40;1.73;;;30.00;35.10;;;;;;6241939;28;20516;-74
2023/07/01 11:02:37;;;;;;;5.85;1.60;;;30.10;35.00;;;;;;6241902;28;20119;-77
2023/07/01 11:05:57;;;;;;;3.22;1.55;;;30.10;34.30;;;;;;6246878;28;20033;-77
2023/07/01 11:08:57;;;;;;;4.78;1.30;;;30.00;34.00;;;;;;6247570;28;20029;-77
2023/07/01 11:12:00;;;;;;;5.68;1.70;;;29.90;34.30;;;;;;6246814;28;20545;-75
2023/07/01 11:15:01;;;;;;;4.35;1.20;;;29.70;34.60;;;;;;6245941;28;20117;-77
2023/07/01 11:18:02;;;;;;;6.05;1.50;;;29.40;34.80;;;;;;6246799;28;20110;-76
2023/07/01 11:21:03;;;;;;;3.35;1.80;;;29.20;35.00;;;;;;6245858;28;20037;-78
2023/07/01 11:24:08;;;;;;;4.38;1.67;;;29.10;35.20;;;;;;6265029;28;20116;-75
2023/07/01 11:27:10;;;;;;;4.28;1.58;;;29.00;35.30;;;;;;6283767;28;20409;-75
2023/07/01 11:30:28;;;;;;;3.45;1.38;;;28.80;35.50;;;;;;6250566;28;20445;-77
2023/07/01 11:33:29;;;;;;;21.98;12.68;;;28.70;35.80;;;;;;6261510;28;20069;-75
2023/07/01 11:36:38;;;;;;;6.53;1.65;;;28.80;35.90;;;;;;6261763;28;20083;-76
2023/07/01 11:39:46;;;;;;;5.28;1.48;;;28.90;35.80;;;;;;6246142;28;20033;-78
2023/07/01 11:42:47;;;;;;;3.88;1.45;;;29.00;35.60;;;;;;6244697;28;20034;-75
2023/07/01 11:45:50;;;;;;;5.32;1.60;;;29.20;35.50;;;;;;6244867;28;20508;-74
2023/07/01 11:48:51;;;;;;;2.25;1.20;;;29.40;35.20;;;;;;6261514;28;20430;-76
2023/07/01 11:51:55;;;;;;;5.68;1.42;;;29.50;35.20;;;;;;6244836;28;20061;-75
2023/07/01 11:54:55;;;;;;;6.50;1.40;;;29.50;35.10;;;;;;6244519;28;20033;-77
2023/07/01 11:57:56;;;;;;;2.72;1.60;;;29.40;35.10;;;;;;6243899;28;20095;-76
2023/07/01 12:00:57;;;;;;;3.03;1.50;;;29.40;35.10;;;;;;6244317;28;20072;-75
2023/07/01 12:03:58;;;;;;;5.85;1.50;;;29.50;34.90;;;;;;6243483;28;20029;-77
2023/07/01 12:07:16;;;;;;;1.20;0.95;;;29.50;34.60;;;;;;6243539;28;20034;-78
2023/07/01 12:10:19;;;;;;;2.30;1.15;;;29.60;34.60;;;;;;6243463;28;20041;-75
2023/07/01 12:13:31;;;;;;;4.22;1.23;;;29.60;34.70;;;;;;6259674;28;20063;-78
2023/07/01 12:16:47;;;;;;;2.00;1.30;;;29.50;34.60;;;;;;6242733;28;20044;-76
2023/07/01 12:19:48;;;;;;;3.45;1.20;;;29.50;34.60;;;;;;6245632;28;20090;-76
2023/07/01 12:22:50;;;;;;;2.13;1.02;;;29.60;34.40;;;;;;6245297;28;20022;-76
2023/07/01 12:25:51;;;;;;;3.00;1.35;;;29.50;34.10;;;;;;6260569;28;20037;-76
2023/07/01 12:28:51;;;;;;;1.73;1.13;;;29.40;34.10;;;;;;6246107;28;20720;-77
2023/07/01 12:31:54;;;;;;;2.22;1.02;;;29.30;34.00;;;;;;6243368;28;20689;-75
2023/07/01 12:34:56;;;;;;;2.20;1.20;;;29.30;34.10;;;;;;6243955;28;20422;-77
2023/07/01 12:37:58;;;;;;;4.45;2.17;;;29.40;34.10;;;;;;6257413;28;20029;-74
2023/07/01 12:41:02;;;;;;;5.78;1.30;;;29.50;34.20;;;;;;6284826;28;20029;-77
2023/07/01 12:44:05;;;;;;;2.33;1.20;;;29.70;34.10;;;;;;6251003;28;20051;-77
2023/07/01 12:47:07;;;;;;;2.67;1.20;;;29.90;34.00;;;;;;6284215;28;20033;-75
2023/07/01 12:50:09;;;;;;;1.98;1.25;;;29.90;34.00;;;;;;6249984;28;20640;-77
2023/07/01 12:53:13;;;;;;;6.18;1.75;;;29.80;34.30;;;;;;6242452;28;20712;-74
2023/07/01 12:56:13;;;;;;;4.00;2.22;;;29.60;34.80;;;;;;6244381;28;20026;-75
2023/07/01 12:59:16;;;;;;;2.85;1.70;;;29.70;35.40;;;;;;6245400;28;20137;-77
2023/07/01 13:02:17;;;;;;;4.50;1.50;;;29.70;35.60;;;;;;6242001;28;20099;-76
2023/07/01 13:05:19;;;;;;;1.90;1.40;;;29.90;35.60;;;;;;6243201;28;20033;-77
2023/07/01 13:08:20;;;;;;;2.58;1.70;;;30.00;35.50;;;;;;6258351;28;20041;-74
2023/07/01 13:11:22;;;;;;;4.32;1.70;;;30.30;35.40;;;;;;6241820;28;20041;-76
2023/07/01 13:14:26;;;;;;;2.70;1.60;;;30.60;35.20;;;;;;6257928;28;20128;-75
2023/07/01 13:17:37;;;;;;;2.05;1.60;;;30.70;35.20;;;;;;6241209;28;20033;-76
2023/07/01 13:20:38;;;;;;;2.38;1.50;;;30.70;35.00;;;;;;6241826;28;20037;-75
2023/07/01 13:23:39;;;;;;;4.35;1.33;;;30.60;35.00;;;;;;6242280;28;20029;-76
2023/07/01 13:26:53;;;;;;;2.22;1.30;;;30.50;35.00;;;;;;6243484;28;20075;-76
2023/07/01 13:29:56;;;;;;;3.65;1.58;;;30.40;34.90;;;;;;6242706;28;20033;-75
2023/07/01 13:32:58;;;;;;;5.55;1.80;;;30.30;34.90;;;;;;6229140;28;20509;-78
2023/07/01 13:36:00;;;;;;;2.60;1.35;;;30.40;34.90;;;;;;6247615;28;20068;-77
2023/07/01 13:39:01;;;;;;;5.22;1.90;;;30.80;34.70;;;;;;6262580;28;20545;-76
2023/07/01 13:42:03;;;;;;;3.45;1.30;;;31.20;34.40;;;;;;6262208;28;20032;-76
2023/07/01 13:45:22;;;;;;;1.70;1.17;;;31.80;33.60;;;;;;6261094;28;20026;-77
2023/07/01 13:48:42;;;;;;;2.70;1.48;;;33.10;32.00;;;;;;6245422;28;20033;-76
2023/07/01 13:51:49;;;;;;;3.13;1.60;;;34.40;30.30;;;;;;6244374;28;20030;-77
2023/07/01 13:54:54;;;;;;;3.70;1.63;;;34.80;29.90;;;;;;6246201;28;20045;-77
2023/07/01 13:57:56;;;;;;;4.88;1.50;;;34.60;30.00;;;;;;6250570;28;20033;-76
2023/07/01 14:01:02;;;;;;;4.45;1.75;;;34.50;30.30;;;;;;6262244;28;20083;-76
2023/07/01 14:04:11;;;;;;;8.15;1.88;;;34.10;30.60;;;;;;6263806;28;20477;-75
2023/07/01 14:07:19;;;;;;;2.22;1.30;;;33.80;30.90;;;;;;6265645;28;20026;-77
2023/07/01 14:10:29;;;;;;;15.13;2.20;;;33.50;30.80;;;;;;6261297;28;20045;-75
2023/07/01 14:13:30;;;;;;;5.30;1.47;;;33.10;31.10;;;;;;6226339;28;20469;-75
2023/07/01 14:16:31;;;;;;;6.78;2.03;;;32.80;31.50;;;;;;6260321;28;20052;-77
2023/07/01 14:19:36;;;;;;;3.03;1.92;;;32.50;31.70;;;;;;6259656;28;20458;-77
2023/07/01 14:22:37;;;;;;;5.10;1.90;;;32.40;32.10;;;;;;6261020;28;20030;-75
2023/07/01 14:25:44;;;;;;;4.07;1.20;;;32.50;32.20;;;;;;6277309;28;20057;-76
2023/07/01 14:28:45;;;;;;;3.00;1.52;;;32.60;32.00;;;;;;6242470;28;20060;-76
2023/07/01 14:31:48;;;;;;;1.77;1.10;;;33.10;31.70;;;;;;6256181;28;20037;-75
2023/07/01 14:34:50;;;;;;;2.70;1.30;;;33.50;31.60;;;;;;6253329;28;20040;-77
2023/07/01 14:37:57;;;;;;;2.35;1.40;;;33.40;31.00;;;;;;6252174;28;20131;-75
2023/07/01 14:41:01;;;;;;;6.80;1.38;;;33.10;31.40;;;;;;6259179;28;20025;-74
2023/07/01 14:44:24;;;;;;;4.03;1.95;;;32.80;32.00;;;;;;6263596;28;20029;-75
2023/07/01 14:47:26;;;;;;;2.97;1.63;;;32.30;32.60;;;;;;6246293;28;20099;-75
2023/07/01 14:50:36;;;;;;;5.03;1.20;;;31.90;33.00;;;;;;6244114;28;20040;-74
2023/07/01 14:53:37;;;;;;;2.97;1.65;;;31.60;33.60;;;;;;6257366;28;20029;-75
2023/07/01 14:56:38;;;;;;;5.25;1.40;;;31.30;34.00;;;;;;6257581;28;20034;-76
2023/07/01 14:59:39;;;;;;;1.45;1.23;;;31.00;34.40;;;;;;6242218;28;20033;-75
2023/07/01 15:02:40;;;;;;;6.57;1.60;;;30.80;34.80;;;;;;6223703;28;20104;-74
2023/07/01 15:05:41;;;;;;;2.90;1.50;;;30.50;35.10;;;;;;6255898;28;20228;-77
2023/07/01 15:08:45;;;;;;;3.08;1.42;;;30.30;35.40;;;;;;6239593;28;20037;-75
2023/07/01 15:11:46;;;;;;;6.63;1.45;;;30.20;35.70;;;;;;6239642;28;20140;-76
2023/07/01 15:14:46;;;;;;;3.33;1.70;;;30.20;35.90;;;;;;6255895;28;20738;-77
2023/07/01 15:17:47;;;;;;;4.82;1.73;;;30.20;36.10;;;;;;6240829;28;20120;-77
2023/07/01 15:20:48;;;;;;;4.30;1.48;;;30.20;36.20;;;;;;6255661;28;20037;-76
2023/07/01 15:23:49;;;;;;;6.00;1.70;;;30.20;36.30;;;;;;6239721;28;20036;-76
2023/07/01 15:27:07;;;;;;;;;;;;;;;;;;;;;
2023/07/01 15:30:09;;;;;;;1.70;1.35;;;29.90;36.80;;;;;;6263338;28;20034;-75
2023/07/01 15:33:10;;;;;;;2.90;1.55;;;29.90;37.10;;;;;;6242359;28;20041;-75
2023/07/01 15:36:11;;;;;;;3.45;1.70;;;29.80;37.20;;;;;;6240389;28;20041;-75
2023/07/01 15:39:12;;;;;;;4.53;1.58;;;29.90;37.40;;;;;;6265799;28;20030;-75
2023/07/01 15:42:13;;;;;;;3.90;1.83;;;30.10;37.30;;;;;;6283308;28;20033;-76
2023/07/01 15:45:14;;;;;;;2.08;1.40;;;30.20;37.00;;;;;;6267506;28;20040;-76
2023/07/01 15:48:16;;;;;;;4.68;1.75;;;30.30;36.90;;;;;;6280780;28;20029;-77
2023/07/01 15:51:17;;;;;;;4.03;1.50;;;30.50;36.90;;;;;;6268266;28;20037;-77
2023/07/01 15:54:18;;;;;;;7.25;2.00;;;30.40;36.80;;;;;;6285004;28;20417;-76